Time;durP1;ratioP1;P1;durP2;ratioP2;P2;SDS_P1;SDS_P2;PMS_P1;PMS_P2;Temp;Humidity;BMP_temperature;BMP_pressure;BME280_temperature;BME280_humidity;BME280_pressure;Samples;Min_cycle;Max_cycle;Signal;HPM_P1;HPM_P2
2023/06/15 00:01:00;;;;;;;9.63;5.20;;;15.50;88.90;;;;;;5012588;28;20030;-44
2023/06/15 00:03:26;;;;;;;10.65;5.15;;;15.40;88.90;;;;;;5013777;28;20054;-46
2023/06/15 00:05:54;;;;;;;7.38;4.70;;;15.40;89.00;;;;;;5013627;28;20061;-45
2023/06/15 00:08:20;;;;;;;6.13;4.57;;;15.40;89.10;;;;;;5013641;28;20475;-45
2023/06/15 00:10:48;;;;;;;7.82;5.30;;;15.40;89.10;;;;;;5013798;28;20103;-45
2023/06/15 00:13:15;;;;;;;8.63;4.90;;;15.40;89.20;;;;;;5013208;28;20111;-45
2023/06/15 00:15:43;;;;;;;7.47;5.35;;;15.40;89.30;;;;;;5013401;28;20330;-45
2023/06/15 00:18:09;;;;;;;9.25;5.25;;;15.40;89.20;;;;;;5013854;28;20116;-46
2023/06/15 00:20:35;;;;;;;7.25;6.22;;;15.40;88.90;;;;;;5013411;28;20044;-46
2023/06/15 00:23:05;;;;;;;10.77;5.93;;;15.30;88.90;;;;;;5013483;28;20030;-47
2023/06/15 00:25:33;;;;;;;11.63;6.20;;;15.30;89.10;;;;;;5012216;28;20029;-44
2023/06/15 00:28:00;;;;;;;12.73;6.70;;;15.30;89.00;;;;;;5013817;28;20030;-47
2023/06/15 00:30:28;;;;;;;9.07;6.35;;;15.30;89.10;;;;;;5013528;28;20104;-44
2023/06/15 00:32:54;;;;;;;7.93;5.90;;;15.30;89.10;;;;;;5013184;28;20104;-46
2023/06/15 00:35:22;;;;;;;7.78;5.72;;;15.20;89.10;;;;;;5013303;28;20048;-46
2023/06/15 00:37:49;;;;;;;7.63;5.18;;;15.20;89.20;;;;;;5013511;28;20045;-46
2023/06/15 00:40:16;;;;;;;6.97;5.93;;;15.20;89.20;;;;;;5011757;28;20040;-46
2023/06/15 00:42:45;;;;;;;6.72;5.28;;;15.20;89.20;;;;;;5012610;28;20025;-47
2023/06/15 00:45:11;;;;;;;8.33;5.50;;;15.10;89.20;;;;;;5012898;28;20578;-44
2023/06/15 00:47:41;;;;;;;9.43;6.20;;;15.10;89.10;;;;;;5013283;28;20261;-46
2023/06/15 00:50:09;;;;;;;;;;;15.10;89.10;;;;;;5013850;28;20371;-45
2023/06/15 00:52:37;;;;;;;9.65;6.50;;;15.00;89.10;;;;;;5012915;28;19910;-48
2023/06/15 00:55:05;;;;;;;8.43;6.20;;;15.00;89.10;;;;;;5013166;28;20096;-45
2023/06/15 00:57:37;;;;;;;6.75;5.93;;;15.00;89.10;;;;;;5012930;28;20041;-50
2023/06/15 01:00:09;;;;;;;6.68;5.63;;;15.00;89.10;;;;;;5012911;28;20490;-45
2023/06/15 01:02:40;;;;;;;8.00;5.78;;;14.90;89.10;;;;;;5012834;28;20036;-44
2023/06/15 01:05:10;;;;;;;7.75;5.55;;;14.90;89.20;;;;;;5013036;28;20030;-48
2023/06/15 01:07:40;;;;;;;7.63;5.70;;;14.90;89.20;;;;;;5013037;28;20033;-46
2023/06/15 01:10:12;;;;;;;10.20;6.18;;;14.90;89.20;;;;;;5015733;28;20052;-45
2023/06/15 01:12:40;;;;;;;7.97;5.72;;;14.80;89.20;;;;;;5028037;28;20050;-49
2023/06/15 01:15:08;;;;;;;7.35;5.32;;;14.80;89.20;;;;;;5015701;28;20560;-47
2023/06/15 01:17:38;;;;;;;6.13;5.03;;;14.80;89.20;;;;;;5013254;28;20117;-46
2023/06/15 01:20:07;;;;;;;9.85;6.13;;;14.70;89.30;;;;;;5011946;28;20029;-44
2023/06/15 01:23:10;;;;;;;6.13;5.07;;;14.70;89.20;;;;;;5021897;28;20029;-45
2023/06/15 01:25:53;;;;;;;6.15;4.75;;;14.60;89.20;;;;;;5032241;28;20367;-44
2023/06/15 01:28:21;;;;;;;6.57;5.30;;;14.60;89.20;;;;;;5032118;28;20032;-45
2023/06/15 01:30:53;;;;;;;6.25;5.20;;;14.60;89.10;;;;;;5031860;28;20022;-47
2023/06/15 01:33:24;;;;;;;5.88;4.82;;;14.60;89.00;;;;;;5031343;28;20036;-45
2023/06/15 01:35:51;;;;;;;7.20;4.07;;;14.50;88.90;;;;;;5032401;28;20035;-44
2023/06/15 01:38:26;;;;;;;4.18;3.30;;;14.50;88.80;;;;;;5015224;28;20446;-44
2023/06/15 01:40:54;;;;;;;4.75;3.47;;;14.40;88.70;;;;;;5012516;28;20041;-45
2023/06/15 01:43:24;;;;;;;5.68;3.45;;;14.40;88.50;;;;;;5012767;28;20022;-43
2023/06/15 01:45:54;;;;;;;4.47;3.20;;;14.30;88.50;;;;;;5012492;28;20426;-43
2023/06/15 01:48:21;;;;;;;5.07;4.38;;;14.30;88.40;;;;;;5029489;28;20053;-46
2023/06/15 01:50:52;;;;;;;6.00;3.97;;;14.20;88.50;;;;;;5032414;28;20036;-47
2023/06/15 01:53:19;;;;;;;5.85;4.43;;;14.20;88.50;;;;;;5013848;28;20032;-48
2023/06/15 01:55:48;;;;;;;6.45;3.65;;;14.20;88.50;;;;;;5015816;28;20385;-44
2023/06/15 01:58:15;;;;;;;6.47;3.95;;;14.20;88.50;;;;;;5015868;28;20088;-44
2023/06/15 02:00:46;;;;;;;5.50;3.85;;;14.20;88.50;;;;;;5027797;28;20394;-46
2023/06/15 02:03:12;;;;;;;5.68;3.97;;;14.10;88.40;;;;;;5035575;28;20048;-44
2023/06/15 02:05:40;;;;;;;4.85;4.25;;;14.10;88.30;;;;;;5035613;28;20445;-45
2023/06/15 02:08:12;;;;;;;7.32;4.78;;;14.10;88.20;;;;;;5035795;28;20025;-45
2023/06/15 02:10:39;;;;;;;6.60;4.90;;;14.00;88.30;;;;;;5015945;28;20391;-43
2023/06/15 02:13:12;;;;;;;6.38;3.50;;;14.00;88.20;;;;;;5015508;28;20367;-46
2023/06/15 02:15:38;;;;;;;4.75;3.88;;;14.00;88.20;;;;;;5014732;28;20079;-47
2023/06/15 02:18:11;;;;;;;7.85;3.92;;;14.00;88.20;;;;;;5028876;28;20431;-44
2023/06/15 02:20:45;;;;;;;10.77;4.22;;;14.00;88.20;;;;;;5035241;28;20450;-49
2023/06/15 02:23:12;;;;;;;6.03;4.38;;;14.00;88.20;;;;;;5034227;28;20048;-44
2023/06/15 02:25:39;;;;;;;4.95;4.45;;;14.00;88.20;;;;;;5030906;28;20117;-44
2023/06/15 02:28:05;;;;;;;7.00;4.97;;;14.00;88.20;;;;;;5015333;28;20534;-43
2023/06/15 02:30:34;;;;;;;6.40;4.50;;;13.90;88.20;;;;;;5014887;28;20045;-44
2023/06/15 02:33:02;;;;;;;9.18;5.22;;;13.90;88.10;;;;;;5014991;28;20030;-44
2023/06/15 02:35:28;;;;;;;6.45;4.90;;;13.90;88.10;;;;;;5014432;28;20456;-44
2023/06/15 02:37:53;;;;;;;7.78;5.30;;;13.90;88.20;;;;;;5021946;28;20099;-43
2023/06/15 02:40:23;;;;;;;7.55;5.15;;;13.90;88.20;;;;;;5034603;28;20034;-44
2023/06/15 02:42:50;;;;;;;6.15;4.88;;;13.90;88.20;;;;;;5034888;28;20025;-45
2023/06/15 02:45:17;;;;;;;5.15;4.15;;;13.90;88.10;;;;;;5034586;28;20036;-43
2023/06/15 02:47:44;;;;;;;6.97;4.82;;;13.90;88.10;;;;;;5018463;28;20026;-45
2023/06/15 02:50:10;;;;;;;8.50;4.72;;;13.90;88.10;;;;;;5014972;28;20033;-43
2023/06/15 02:52:40;;;;;;;7.45;4.68;;;13.90;88.00;;;;;;5014816;28;20026;-45
2023/06/15 02:55:07;;;;;;;7.10;4.68;;;13.90;88.00;;;;;;5014037;28;20333;-43
2023/06/15 02:57:33;;;;;;;7.10;5.05;;;13.80;88.00;;;;;;5014622;28;20075;-44
2023/06/15 02:59:59;;;;;;;6.22;5.25;;;13.80;88.00;;;;;;5014799;28;20348;-44
2023/06/15 03:02:27;;;;;;;7.15;4.93;;;13.80;88.00;;;;;;5014762;28;20095;-43
2023/06/15 03:04:54;;;;;;;7.15;5.43;;;13.80;88.10;;;;;;5014155;28;20619;-44
2023/06/15 03:07:22;;;;;;;5.93;4.53;;;13.70;88.00;;;;;;5014642;28;20038;-43
2023/06/15 03:09:52;;;;;;;9.07;5.32;;;13.70;87.90;;;;;;5014759;28;20567;-44
2023/06/15 03:12:18;;;;;;;8.80;5.22;;;13.70;87.90;;;;;;5029180;28;20033;-44
2023/06/15 03:14:50;;;;;;;11.98;4.82;;;13.70;87.90;;;;;;5034428;28;20048;-43
2023/06/15 03:17:21;;;;;;;7.40;4.45;;;13.70;87.90;;;;;;5028545;28;20037;-44
2023/06/15 03:19:48;;;;;;;6.22;4.63;;;13.70;87.90;;;;;;5014465;28;20030;-43
2023/06/15 03:22:15;;;;;;;7.68;4.95;;;13.70;87.70;;;;;;5014326;28;20026;-43
2023/06/15 03:24:43;;;;;;;9.15;5.05;;;13.70;87.70;;;;;;5014158;28;20112;-44
2023/06/15 03:27:13;;;;;;;7.45;4.88;;;13.70;87.70;;;;;;5014709;28;20033;-44
2023/06/15 03:29:40;;;;;;;7.63;4.88;;;13.70;87.70;;;;;;5014357;28;20024;-43
2023/06/15 03:32:06;;;;;;;7.93;4.38;;;13.70;87.60;;;;;;5014275;28;20053;-43
2023/06/15 03:34:35;;;;;;;6.63;4.28;;;13.70;87.70;;;;;;5013952;28;20548;-43
2023/06/15 03:37:03;;;;;;;5.88;3.60;;;13.80;87.50;;;;;;5013263;28;20119;-43
2023/06/15 03:39:30;;;;;;;6.93;4.20;;;13.80;87.40;;;;;;5014148;28;20054;-44
2023/06/15 03:41:57;;;;;;;4.63;3.38;;;13.80;87.30;;;;;;5014279;28;20451;-42
2023/06/15 03:44:24;;;;;;;8.00;3.70;;;13.90;87.10;;;;;;5013839;28;20470;-44
2023/06/15 03:46:51;;;;;;;5.25;3.45;;;13.90;86.90;;;;;;5030418;28;20040;-44
2023/06/15 03:49:18;;;;;;;5.60;3.45;;;13.90;86.80;;;;;;5033657;28;20411;-42
2023/06/15 03:51:47;;;;;;;8.93;4.40;;;13.90;86.80;;;;;;5033751;28;20028;-44
2023/06/15 03:54:14;;;;;;;4.68;3.63;;;13.90;86.60;;;;;;5021293;28;20034;-43
2023/06/15 03:56:42;;;;;;;6.63;3.20;;;13.90;86.70;;;;;;5014108;28;20362;-44
2023/06/15 03:59:08;;;;;;;5.30;3.40;;;13.90;86.70;;;;;;5013806;28;20029;-43
2023/06/15 04:01:35;;;;;;;5.85;3.45;;;13.90;86.80;;;;;;5012626;28;20026;-44
2023/06/15 04:04:03;;;;;;;5.45;3.42;;;14.00;86.80;;;;;;5013154;28;20088;-43
2023/06/15 04:06:32;;;;;;;5.32;3.35;;;14.00;86.80;;;;;;5013277;28;20420;-42
2023/06/15 04:08:58;;;;;;;4.45;3.53;;;14.10;86.70;;;;;;5013177;28;20045;-42
2023/06/15 04:11:25;;;;;;;5.43;3.97;;;14.10;86.80;;;;;;5020715;28;20418;-43
2023/06/15 04:13:51;;;;;;;4.35;2.95;;;14.10;86.70;;;;;;5032597;28;20115;-43
2023/06/15 04:16:18;;;;;;;5.25;3.13;;;14.10;86.60;;;;;;5031900;28;20104;-43
2023/06/15 04:18:45;;;;;;;6.97;3.40;;;14.20;86.60;;;;;;5032471;28;20037;-43
2023/06/15 04:21:11;;;;;;;4.72;3.42;;;14.20;86.70;;;;;;5024878;28;20451;-42
2023/06/15 04:23:37;;;;;;;7.35;3.78;;;14.20;86.80;;;;;;5011924;28;20034;-44
2023/06/15 04:26:04;;;;;;;5.43;3.53;;;14.30;86.80;;;;;;5015596;28;20040;-43
2023/06/15 04:28:31;;;;;;;7.63;3.97;;;14.40;86.70;;;;;;5032314;28;20026;-43
2023/06/15 04:31:12;;;;;;;6.38;4.00;;;14.40;86.60;;;;;;5032848;28;20049;-45
2023/06/15 04:33:42;;;;;;;5.22;3.42;;;14.60;86.60;;;;;;5024911;28;20364;-43
2023/06/15 04:36:12;;;;;;;5.75;3.40;;;14.70;86.50;;;;;;5013181;28;20041;-42
2023/06/15 04:38:46;;;;;;;9.02;3.78;;;14.90;86.00;;;;;;5013392;28;20531;-42
2023/06/15 04:41:22;;;;;;;5.32;2.90;;;15.00;85.10;;;;;;5012665;28;20393;-43
2023/06/15 04:43:49;;;;;;;6.03;3.72;;;15.20;84.20;;;;;;5013155;28;20131;-42
2023/06/15 04:46:19;;;;;;;6.68;3.45;;;15.30;83.60;;;;;;5018402;28;20037;-44
2023/06/15 04:48:47;;;;;;;6.03;3.40;;;15.40;82.70;;;;;;5032942;28;20420;-43
2023/06/15 04:51:16;;;;;;;7.63;3.50;;;15.40;82.90;;;;;;5032808;28;20030;-43
2023/06/15 04:53:42;;;;;;;8.98;3.33;;;15.50;82.40;;;;;;5028870;28;20030;-44
2023/06/15 04:56:11;;;;;;;6.80;3.50;;;15.50;82.10;;;;;;5013008;28;20062;-43
2023/06/15 04:58:38;;;;;;;4.00;3.13;;;15.50;81.50;;;;;;5013162;28;20026;-44
2023/06/15 05:01:06;;;;;;;6.28;3.20;;;15.50;81.00;;;;;;5013006;28;20141;-45
2023/06/15 05:03:33;;;;;;;5.35;3.13;;;15.60;81.30;;;;;;5019634;28;20024;-44
2023/06/15 05:06:00;;;;;;;4.20;2.92;;;15.60;81.50;;;;;;5032595;28;20104;-43
2023/06/15 05:08:27;;;;;;;4.80;2.80;;;15.60;81.20;;;;;;5032882;28;20025;-43
2023/06/15 05:10:53;;;;;;;5.10;2.83;;;15.60;81.30;;;;;;5032757;28;20099;-44
2023/06/15 05:13:20;;;;;;;5.20;2.83;;;15.60;80.50;;;;;;5020121;28;20112;-44
2023/06/15 05:15:47;;;;;;;5.88;3.42;;;15.60;79.90;;;;;;5012853;28;20022;-43
2023/06/15 05:18:13;;;;;;;3.63;2.47;;;15.70;79.70;;;;;;5013183;28;20032;-43
2023/06/15 05:20:43;;;;;;;6.10;3.13;;;15.80;79.00;;;;;;5012790;28;20038;-44
2023/06/15 05:23:10;;;;;;;6.82;3.28;;;15.80;79.20;;;;;;5028359;28;20022;-44
2023/06/15 05:25:39;;;;;;;4.57;3.22;;;15.80;79.10;;;;;;5012292;28;20045;-45
2023/06/15 05:28:06;;;;;;;6.35;3.47;;;15.90;78.50;;;;;;5013793;28;20026;-45
2023/06/15 05:30:32;;;;;;;6.47;3.58;;;15.90;77.70;;;;;;5016207;28;20026;-44
2023/06/15 05:32:58;;;;;;;5.20;3.25;;;15.90;76.60;;;;;;5015862;28;20420;-43
2023/06/15 05:35:25;;;;;;;4.57;3.35;;;16.00;76.50;;;;;;5015668;28;20103;-44
2023/06/15 05:37:52;;;;;;;4.85;3.05;;;16.10;76.50;;;;;;5016315;28;20435;-45
2023/06/15 05:40:19;;;;;;;7.43;3.30;;;16.20;76.40;;;;;;5016449;28;20022;-44
2023/06/15 05:42:46;;;;;;;4.30;3.10;;;16.30;76.40;;;;;;5016271;28;20089;-44
2023/06/15 05:45:17;;;;;;;5.68;2.95;;;16.30;75.90;;;;;;5015770;28;20092;-45
2023/06/15 05:47:44;;;;;;;6.10;2.85;;;16.40;75.80;;;;;;5016352;28;20017;-46
2023/06/15 05:50:11;;;;;;;8.35;3.50;;;16.50;75.70;;;;;;5016327;28;20029;-46
2023/06/15 05:52:38;;;;;;;5.10;2.97;;;16.80;74.30;;;;;;5015182;28;20409;-45
2023/06/15 05:55:05;;;;;;;5.50;2.78;;;17.20;73.00;;;;;;5014873;28;20029;-45
2023/06/15 05:57:33;;;;;;;4.07;2.85;;;17.60;72.80;;;;;;5015065;28;20383;-46
2023/06/15 06:00:04;;;;;;;6.38;3.40;;;18.10;72.60;;;;;;5015246;28;20038;-45
2023/06/15 06:02:30;;;;;;;9.90;3.70;;;18.50;69.80;;;;;;5016138;28;20061;-47
2023/06/15 06:04:57;;;;;;;8.40;2.97;;;18.90;66.10;;;;;;5014921;28;20052;-46
2023/06/15 06:07:24;;;;;;;5.10;2.90;;;19.40;67.20;;;;;;5015865;28;20316;-48
2023/06/15 06:09:50;;;;;;;5.55;2.65;;;19.60;65.10;;;;;;5015909;28;20038;-47
2023/06/15 06:12:18;;;;;;;4.43;2.85;;;19.70;63.40;;;;;;5015147;28;20546;-47
2023/06/15 06:14:45;;;;;;;4.30;2.72;;;19.90;63.20;;;;;;5014638;28;20030;-47
2023/06/15 06:17:14;;;;;;;4.50;2.53;;;20.10;62.70;;;;;;5015839;28;20091;-47
2023/06/15 06:19:41;;;;;;;6.68;2.83;;;20.40;61.90;;;;;;5015708;28;20030;-48
2023/06/15 06:22:08;;;;;;;3.97;2.75;;;20.70;60.00;;;;;;4998548;28;20066;-48
2023/06/15 06:24:33;;;;;;;3.83;2.28;;;20.60;56.90;;;;;;5014392;28;20083;-48
2023/06/15 06:27:00;;;;;;;5.07;2.97;;;20.70;57.30;;;;;;5015713;28;20116;-48
2023/06/15 06:29:26;;;;;;;4.63;2.70;;;20.60;57.00;;;;;;5015453;28;20029;-48
2023/06/15 06:31:53;;;;;;;3.97;2.17;;;20.60;57.60;;;;;;5015405;28;20026;-49
2023/06/15 06:34:22;;;;;;;4.72;2.90;;;20.60;58.50;;;;;;5015761;28;20060;-48
2023/06/15 06:36:49;;;;;;;5.03;3.10;;;20.70;58.20;;;;;;5015388;28;20038;-48
2023/06/15 06:39:18;;;;;;;6.70;2.92;;;20.70;58.40;;;;;;5013318;28;20496;-48
2023/06/15 06:41:45;;;;;;;4.77;2.37;;;20.70;57.60;;;;;;5015035;28;20044;-48
2023/06/15 06:44:13;;;;;;;3.47;2.42;;;20.80;58.80;;;;;;5014811;28;20084;-48
2023/06/15 06:46:42;;;;;;;7.40;2.40;;;20.90;59.80;;;;;;5014665;28;20062;-48
2023/06/15 06:49:10;;;;;;;10.18;3.53;;;20.90;59.50;;;;;;5015185;28;20026;-48
2023/06/15 06:51:37;;;;;;;5.70;2.58;;;20.90;57.60;;;;;;5014084;28;20375;-48
2023/06/15 06:54:06;;;;;;;8.25;3.42;;;20.90;55.30;;;;;;5015177;28;20022;-48
2023/06/15 06:56:33;;;;;;;5.55;2.58;;;20.90;55.20;;;;;;5031575;28;20418;-50
2023/06/15 06:59:02;;;;;;;5.25;3.05;;;20.90;53.80;;;;;;5034615;28;20117;-48
2023/06/15 07:01:29;;;;;;;5.40;3.28;;;21.00;53.70;;;;;;5028722;28;20029;-47
2023/06/15 07:03:55;;;;;;;6.68;2.97;;;21.20;54.60;;;;;;5014727;28;20034;-47
2023/06/15 07:06:23;;;;;;;5.75;2.33;;;21.50;55.20;;;;;;5030652;28;20352;-49
2023/06/15 07:08:51;;;;;;;6.07;2.75;;;21.60;54.60;;;;;;5032090;28;20033;-50
2023/06/15 07:11:18;;;;;;;6.13;2.55;;;21.60;53.30;;;;;;5034505;28;20161;-51
2023/06/15 07:13:43;;;;;;;4.90;2.75;;;21.80;53.20;;;;;;5034699;28;20084;-48
2023/06/15 07:16:10;;;;;;;5.05;2.90;;;21.90;53.90;;;;;;5025007;28;20583;-48
2023/06/15 07:18:37;;;;;;;7.30;2.70;;;22.20;51.50;;;;;;5014695;28;20053;-48
2023/06/15 07:21:04;;;;;;;5.07;2.92;;;22.50;52.00;;;;;;5014643;28;20029;-50
2023/06/15 07:23:30;;;;;;;4.28;2.50;;;23.10;51.30;;;;;;5014527;28;20041;-50
2023/06/15 07:26:00;;;;;;;4.57;2.88;;;23.70;50.20;;;;;;5014209;28;20026;-49
2023/06/15 07:28:26;;;;;;;;;;;24.30;49.20;;;;;;5015138;28;20037;-49
2023/06/15 07:30:57;;;;;;;4.13;2.63;;;24.50;47.80;;;;;;5014582;28;19909;-48
2023/06/15 07:33:24;;;;;;;6.78;2.95;;;24.90;47.70;;;;;;5030017;28;20018;-49
2023/06/15 07:35:50;;;;;;;5.85;3.08;;;25.10;46.80;;;;;;5018323;28;20041;-48
2023/06/15 07:38:17;;;;;;;5.57;2.80;;;25.60;46.10;;;;;;5014303;28;20038;-48
2023/06/15 07:40:44;;;;;;;3.65;2.50;;;26.00;47.30;;;;;;5014335;28;20030;-51
2023/06/15 07:43:14;;;;;;;5.93;3.08;;;26.40;45.20;;;;;;5014182;28;20026;-48
2023/06/15 07:45:44;;;;;;;6.13;2.30;;;26.70;42.60;;;;;;5012991;28;20026;-48
2023/06/15 07:48:13;;;;;;;4.57;2.65;;;26.90;43.30;;;;;;5014116;28;20022;-48
2023/06/15 07:50:40;;;;;;;5.20;2.70;;;27.00;43.30;;;;;;5013195;28;20034;-48
2023/06/15 07:53:07;;;;;;;3.60;2.55;;;27.10;44.90;;;;;;5028845;28;20057;-49
2023/06/15 07:55:34;;;;;;;3.42;2.38;;;27.20;45.10;;;;;;5013331;28;20034;-50
2023/06/15 07:58:00;;;;;;;5.70;2.65;;;27.40;46.20;;;;;;5013675;28;20156;-48
2023/06/15 08:00:27;;;;;;;4.55;2.42;;;27.40;46.20;;;;;;5013353;28;20036;-49
2023/06/15 08:02:56;;;;;;;4.78;2.70;;;27.10;46.80;;;;;;5012712;28;20088;-50
2023/06/15 08:05:25;;;;;;;4.43;2.97;;;27.00;46.40;;;;;;5013346;28;20060;-49
2023/06/15 08:07:51;;;;;;;6.57;2.45;;;26.90;44.30;;;;;;5013446;28;20034;-50
2023/06/15 08:10:18;;;;;;;5.63;2.38;;;26.90;47.20;;;;;;5013278;28;20048;-49
2023/06/15 08:12:45;;;;;;;5.97;2.95;;;26.90;46.20;;;;;;5013035;28;20475;-49
2023/06/15 08:15:12;;;;;;;5.47;2.50;;;26.60;45.40;;;;;;5012342;28;20456;-52
2023/06/15 08:17:39;;;;;;;5.38;2.60;;;26.50;46.60;;;;;;5013016;28;20160;-49
2023/06/15 08:20:08;;;;;;;8.65;2.13;;;26.10;47.60;;;;;;5012926;28;20045;-48
2023/06/15 08:22:38;;;;;;;5.57;3.15;;;26.40;48.00;;;;;;5013364;28;20029;-50
2023/06/15 08:25:06;;;;;;;6.85;2.58;;;26.30;46.90;;;;;;5013028;28;20073;-52
2023/06/15 08:27:32;;;;;;;6.35;2.47;;;26.60;46.30;;;;;;5013395;28;20044;-48
2023/06/15 08:29:58;;;;;;;4.68;2.53;;;26.80;47.90;;;;;;5013266;28;20022;-48
2023/06/15 08:32:29;;;;;;;4.18;2.42;;;26.90;46.60;;;;;;5012500;28;20025;-50
2023/06/15 08:34:56;;;;;;;5.68;2.55;;;27.10;46.50;;;;;;5028310;28;20084;-49
2023/06/15 08:37:21;;;;;;;6.60;2.97;;;27.20;46.40;;;;;;5013517;28;20025;-48
2023/06/15 08:39:48;;;;;;;4.95;2.47;;;27.30;46.00;;;;;;5029154;28;20148;-49
2023/06/15 08:42:17;;;;;;;5.43;2.58;;;26.90;47.50;;;;;;5025360;28;20034;-52
2023/06/15 08:44:48;;;;;;;4.60;2.70;;;26.80;48.20;;;;;;5012260;28;20037;-49
2023/06/15 08:47:16;;;;;;;4.57;2.70;;;26.50;49.20;;;;;;5028648;28;20396;-52
2023/06/15 08:49:43;;;;;;;6.70;3.13;;;26.40;49.50;;;;;;5012396;28;20051;-50
2023/06/15 08:52:12;;;;;;;8.82;3.38;;;26.70;49.90;;;;;;5013082;28;20139;-48
2023/06/15 08:54:42;;;;;;;4.05;2.50;;;26.80;49.00;;;;;;5012327;28;20034;-51
2023/06/15 08:57:09;;;;;;;;;;;26.60;49.30;;;;;;5013504;28;20065;-53
2023/06/15 08:59:37;;;;;;;5.18;2.58;;;26.60;48.10;;;;;;5012326;28;19906;-50
2023/06/15 09:02:03;;;;;;;7.85;3.65;;;26.70;51.70;;;;;;5013193;28;20358;-50
2023/06/15 09:04:31;;;;;;;4.07;2.65;;;26.60;52.60;;;;;;5016471;28;20452;-49
2023/06/15 09:06:58;;;;;;;4.93;3.28;;;26.40;51.20;;;;;;5017037;28;20112;-52
2023/06/15 09:09:25;;;;;;;4.45;3.17;;;26.60;49.90;;;;;;5017095;28;20054;-48
2023/06/15 09:11:52;;;;;;;5.20;3.10;;;26.40;51.40;;;;;;5016959;28;20018;-49
2023/06/15 09:14:19;;;;;;;4.75;3.13;;;26.40;51.00;;;;;;5016564;28;20050;-48
2023/06/15 09:16:50;;;;;;;5.70;3.53;;;26.20;52.50;;;;;;5033540;28;20021;-49
2023/06/15 09:19:19;;;;;;;3.80;2.90;;;26.20;53.50;;;;;;5037026;28;20033;-50
2023/06/15 09:21:51;;;;;;;4.22;2.95;;;26.10;53.50;;;;;;5036458;28;20076;-52
2023/06/15 09:24:21;;;;;;;4.65;2.70;;;26.30;52.20;;;;;;5021083;28;20030;-53
2023/06/15 09:26:48;;;;;;;4.78;3.28;;;26.40;53.90;;;;;;5016680;28;20037;-50
2023/06/15 09:29:14;;;;;;;6.75;3.17;;;26.40;52.60;;;;;;5016780;28;20033;-48
2023/06/15 09:31:43;;;;;;;6.75;3.58;;;26.70;51.60;;;;;;5016580;28;20032;-52
2023/06/15 09:34:13;;;;;;;5.65;2.78;;;26.90;50.30;;;;;;5035785;28;20033;-50
2023/06/15 09:36:57;;;;;;;4.60;2.97;;;26.90;49.00;;;;;;5035230;28;20037;-52
2023/06/15 09:39:26;;;;;;;6.88;2.83;;;26.50;48.50;;;;;;5031796;28;20084;-54
2023/06/15 09:42:00;;;;;;;6.75;2.72;;;26.00;48.20;;;;;;5016484;28;20038;-48
2023/06/15 09:44:30;;;;;;;6.32;2.55;;;25.50;50.60;;;;;;5016234;28;20048;-51
2023/06/15 09:47:01;;;;;;;6.80;2.97;;;25.20;49.00;;;;;;5016252;28;20088;-52
2023/06/15 09:49:28;;;;;;;6.88;3.13;;;25.10;48.90;;;;;;5016394;28;20064;-49
2023/06/15 09:51:56;;;;;;;4.82;2.72;;;25.20;50.90;;;;;;5015343;28;20026;-50
2023/06/15 09:54:23;;;;;;;8.73;3.35;;;25.50;49.70;;;;;;5015886;28;20117;-49
2023/06/15 09:56:52;;;;;;;8.23;2.75;;;25.70;51.00;;;;;;5015071;28;20033;-50
2023/06/15 09:59:20;;;;;;;4.90;3.30;;;25.80;47.80;;;;;;5016201;28;20030;-48
2023/06/15 10:01:48;;;;;;;9.00;3.05;;;25.80;49.20;;;;;;5016111;28;20398;-49
2023/06/15 10:04:17;;;;;;;4.00;2.77;;;25.60;49.70;;;;;;5014887;28;20018;-49
2023/06/15 10:06:47;;;;;;;6.32;2.72;;;25.30;48.20;;;;;;4998851;28;20284;-49
2023/06/15 10:09:17;;;;;;;5.10;2.50;;;24.90;47.80;;;;;;5015923;28;20026;-51
2023/06/15 10:11:47;;;;;;;;;;;24.40;48.60;;;;;;4999308;28;20100;-50
2023/06/15 10:14:46;;;;;;;4.57;2.70;;;23.80;50.80;;;;;;5015269;28;19925;-50
2023/06/15 10:17:16;;;;;;;6.33;3.60;;;23.20;52.80;;;;;;5014162;28;20049;-51
2023/06/15 10:19:47;;;;;;;5.13;2.83;;;22.90;54.10;;;;;;5014193;28;20032;-49
2023/06/15 10:22:18;;;;;;;4.50;2.83;;;22.70;54.90;;;;;;5014129;28;20080;-53
2023/06/15 10:24:46;;;;;;;5.30;3.08;;;22.60;56.20;;;;;;5014900;28;20044;-48
2023/06/15 10:27:14;;;;;;;4.25;2.67;;;22.60;56.10;;;;;;5015169;28;20040;-49
2023/06/15 10:30:06;;;;;;;4.57;2.92;;;22.40;54.70;;;;;;5015237;28;20502;-49
2023/06/15 10:33:08;;;;;;;4.38;2.78;;;22.70;52.90;;;;;;5015296;28;20026;-49
2023/06/15 10:35:56;;;;;;;5.25;2.70;;;23.30;54.70;;;;;;5015253;28;20402;-49
2023/06/15 10:38:44;;;;;;;7.45;2.65;;;23.50;51.70;;;;;;5014379;28;20348;-50
2023/06/15 10:41:11;;;;;;;4.32;2.58;;;23.60;54.20;;;;;;5015566;28;20034;-49
2023/06/15 10:43:37;;;;;;;8.40;2.88;;;23.70;52.20;;;;;;5014842;28;20495;-49
2023/06/15 10:46:06;;;;;;;4.53;2.47;;;23.90;51.80;;;;;;5015010;28;20052;-52
2023/06/15 10:48:38;;;;;;;9.10;2.97;;;23.90;49.60;;;;;;5014984;28;20018;-49
2023/06/15 10:51:12;;;;;;;4.57;2.38;;;23.70;51.00;;;;;;5015122;28;20084;-50
2023/06/15 10:53:43;;;;;;;4.25;2.38;;;23.70;52.50;;;;;;5015116;28;20021;-49
2023/06/15 10:56:19;;;;;;;6.22;2.75;;;23.30;49.90;;;;;;5014718;28;20048;-49
2023/06/15 10:59:04;;;;;;;9.35;2.75;;;23.10;51.10;;;;;;5013916;28;20037;-49
2023/06/15 11:01:32;;;;;;;6.95;2.80;;;23.00;53.20;;;;;;5015214;28;20101;-49
2023/06/15 11:04:00;;;;;;;7.05;2.70;;;22.80;52.80;;;;;;5014880;28;20087;-49
2023/06/15 11:06:56;;;;;;;4.07;2.40;;;22.50;53.80;;;;;;5031504;28;20414;-48
2023/06/15 11:09:25;;;;;;;7.38;2.72;;;22.30;55.10;;;;;;5022336;28;20034;-49
2023/06/15 11:11:55;;;;;;;6.20;2.50;;;22.00;55.40;;;;;;5013991;28;20052;-49
2023/06/15 11:14:22;;;;;;;5.38;2.60;;;21.80;54.70;;;;;;5018568;28;20117;-48
2023/06/15 11:17:05;;;;;;;5.32;2.50;;;21.60;54.10;;;;;;5014283;28;20117;-48
2023/06/15 11:19:41;;;;;;;6.75;2.65;;;21.40;54.80;;;;;;5014787;28;20021;-50
2023/06/15 11:22:11;;;;;;;4.28;3.10;;;21.40;56.00;;;;;;5014367;28;20034;-49
2023/06/15 11:24:39;;;;;;;;;;;21.10;54.80;;;;;;5014655;28;20101;-50
2023/06/15 11:27:10;;;;;;;9.57;2.85;;;21.20;55.10;;;;;;5013972;28;19905;-48
2023/06/15 11:29:40;;;;;;;6.90;2.45;;;21.10;55.90;;;;;;5014203;28;20045;-48
2023/06/15 11:32:10;;;;;;;5.53;2.75;;;21.10;55.30;;;;;;5012878;28;20041;-48
2023/06/15 11:34:38;;;;;;;11.52;3.33;;;21.20;54.80;;;;;;5013729;28;20339;-51
2023/06/15 11:37:06;;;;;;;7.72;2.95;;;21.20;54.70;;;;;;5014482;28;20498;-49
2023/06/15 11:39:33;;;;;;;7.63;3.28;;;21.30;54.70;;;;;;5019552;28;20049;-48
2023/06/15 11:42:00;;;;;;;7.50;2.80;;;21.30;54.60;;;;;;5034017;28;20029;-50
2023/06/15 11:44:27;;;;;;;6.00;2.78;;;21.50;54.90;;;;;;5032805;28;20348;-49
2023/06/15 11:47:02;;;;;;;8.25;2.70;;;21.60;54.40;;;;;;5022185;28;20101;-51
2023/06/15 11:49:35;;;;;;;5.40;3.08;;;21.90;56.10;;;;;;5014050;28;20025;-48
2023/06/15 11:52:03;;;;;;;5.85;2.40;;;21.90;53.80;;;;;;5014093;28;20109;-51
2023/06/15 11:54:33;;;;;;;10.73;2.67;;;21.90;50.30;;;;;;5014367;28;20058;-50
2023/06/15 11:57:01;;;;;;;4.97;2.53;;;21.90;53.00;;;;;;5024759;28;20056;-48
2023/06/15 11:59:28;;;;;;;4.05;2.45;;;22.00;54.90;;;;;;5030177;28;20443;-49
2023/06/15 12:02:12;;;;;;;6.05;2.25;;;22.00;50.90;;;;;;5013757;28;20100;-51
2023/06/15 12:04:41;;;;;;;3.42;2.17;;;22.00;50.20;;;;;;5013719;28;20096;-52
2023/06/15 12:07:07;;;;;;;5.25;2.67;;;22.10;51.30;;;;;;5028509;28;20029;-48
2023/06/15 12:09:34;;;;;;;7.22;2.67;;;22.30;50.30;;;;;;5032531;28;20355;-52
2023/06/15 12:12:03;;;;;;;4.50;2.50;;;22.60;47.20;;;;;;5033932;28;20037;-50
2023/06/15 12:14:29;;;;;;;8.00;2.58;;;23.00;47.40;;;;;;5033315;28;20596;-48
2023/06/15 12:16:57;;;;;;;6.63;2.40;;;23.10;47.20;;;;;;5022002;28;20026;-49
2023/06/15 12:19:23;;;;;;;8.57;2.75;;;23.20;46.00;;;;;;5028981;28;20405;-50
2023/06/15 12:21:50;;;;;;;6.35;2.58;;;23.40;44.20;;;;;;5013337;28;20471;-51
2023/06/15 12:24:38;;;;;;;6.10;2.72;;;23.50;43.40;;;;;;5013384;28;20113;-49
2023/06/15 12:27:15;;;;;;;10.05;2.60;;;23.50;43.60;;;;;;5013816;28;20038;-49
2023/06/15 12:29:42;;;;;;;7.72;2.53;;;23.60;45.30;;;;;;5012321;28;20030;-49
2023/06/15 12:32:11;;;;;;;7.13;2.25;;;23.80;46.30;;;;;;5013637;28;20399;-48
2023/06/15 12:34:39;;;;;;;8.70;3.22;;;23.60;44.10;;;;;;5013145;28;20034;-48
2023/06/15 12:37:12;;;;;;;4.93;2.35;;;23.30;45.20;;;;;;5012868;28;20399;-50
2023/06/15 12:39:39;;;;;;;11.35;3.10;;;23.20;45.40;;;;;;5013006;28;20339;-48
2023/06/15 12:42:09;;;;;;;5.78;2.72;;;23.40;46.20;;;;;;5015398;28;20061;-52
2023/06/15 12:44:36;;;;;;;4.05;2.58;;;23.30;45.70;;;;;;5013208;28;20041;-48
2023/06/15 12:47:06;;;;;;;6.82;2.47;;;23.10;48.10;;;;;;5012320;28;20376;-51
2023/06/15 12:49:33;;;;;;;6.70;3.00;;;22.90;49.50;;;;;;5013363;28;20454;-49
2023/06/15 12:52:00;;;;;;;5.95;2.58;;;22.70;50.20;;;;;;5013424;28;20084;-48
2023/06/15 12:54:29;;;;;;;5.55;2.60;;;22.40;52.00;;;;;;5013371;28;20065;-48
2023/06/15 12:56:56;;;;;;;6.85;2.63;;;22.10;53.90;;;;;;5013405;28;20026;-48